| Date | Time | Temp. (oF) | Dew Point (oF) | Rel. Hum. (%) | Press. (in.) | Wind Dir. | Wind Speed (mph) | Hourly Rainfall (in.) |
|
|---|---|---|---|---|---|---|---|---|---|
| 1 | 03/20 | 00:00 | 34 | 29 | 82 | 30.34 | ESE | 2 | 0.00 |
| 2 | 03/19 | 23:00 | 34 | 28 | 80 | 30.36 | E | 9 | 0.00 |
| 3 | 03/19 | 22:00 | 35 | 28 | 76 | 30.36 | SE | 11 | 0.00 |
| 4 | 03/19 | 21:00 | 36 | 28 | 74 | 30.36 | SE | 6 | 0.00 |
| 5 | 03/19 | 20:00 | 38 | 29 | 70 | 30.34 | ESE | 9 | 0.00 |
| 6 | 03/19 | 19:00 | 40 | 29 | 66 | 30.30 | SSE | 5 | 0.00 |
| 7 | 03/19 | 18:00 | 43 | 30 | 60 | 30.29 | ESE | 12 | 0.00 |
| 8 | 03/19 | 17:00 | 46 | 32 | 58 | 30.29 | SE | 10 | 0.00 |
| 9 | 03/19 | 16:00 | 47 | 31 | 55 | 30.29 | E | 7 | 0.00 |
| 10 | 03/19 | 15:00 | 46 | 33 | 61 | 30.30 | SSE | 4 | 0.00 |
| 11 | 03/19 | 14:00 | 43 | 34 | 71 | 30.33 | NE | 8 | 0.00 |
| 12 | 03/19 | 13:00 | 39 | 32 | 77 | 30.35 | E | 4 | 0.00 |
| 13 | 03/19 | 12:00 | 39 | 32 | 76 | 30.34 | SE | 11 | 0.00 |
| 14 | 03/19 | 11:00 | 40 | 33 | 78 | 30.33 | ENE | 6 | 0.00 |
| 15 | 03/19 | 10:00 | 41 | 33 | 73 | 30.32 | SSE | 10 | 0.00 |
| 16 | 03/19 | 09:00 | 41 | 33 | 74 | 30.31 | E | 13 | 0.00 |
| 17 | 03/19 | 08:00 | 40 | 34 | 80 | 30.28 | E | 10 | 0.00 |
| 18 | 03/19 | 07:00 | 40 | 35 | 83 | 30.25 | E | 18 | 0.00 |
| 19 | 03/19 | 06:00 | 41 | 38 | 89 | 30.21 | E | 9 | 0.00 |
| 20 | 03/19 | 05:00 | 41 | 35 | 82 | 30.19 | E | 10 | 0.00 |
| 21 | 03/19 | 04:00 | 41 | 33 | 75 | 30.15 | NE | 6 | 0.00 |
| 22 | 03/19 | 03:00 | 43 | 36 | 79 | 30.12 | E | 6 | 0.00 |
| 23 | 03/19 | 02:00 | 46 | 38 | 76 | 30.10 | NE | 5 | 0.00 |
| 24 | 03/19 | 01:00 | 47 | 40 | 78 | 30.08 | NE | 2 | 0.00 |